createdAt,value
2022-11-07T00:02:15.756Z,95391.06
2022-11-07T00:04:42.336Z,95401.91
2022-11-07T00:07:08.947Z,95394.91
2022-11-07T00:09:35.565Z,95389.78
2022-11-07T00:12:02.176Z,95403.69
2022-11-07T00:14:28.760Z,95408.63
2022-11-07T00:16:55.325Z,95405.28
2022-11-07T00:19:22.189Z,95401.91
2022-11-07T00:21:49.279Z,95409.25
2022-11-07T00:24:17.161Z,95405.72
2022-11-07T00:26:45.567Z,95409.22
2022-11-07T00:29:13.670Z,95413.19
2022-11-07T00:31:40.133Z,95416.00
2022-11-07T00:34:06.680Z,95420.63
2022-11-07T00:36:33.358Z,95414.69
2022-11-07T00:39:00.005Z,95422.97
2022-11-07T00:41:26.617Z,95418.81
2022-11-07T00:43:53.761Z,95423.28
2022-11-07T00:46:21.237Z,95433.44
2022-11-07T00:48:48.358Z,95428.16
2022-11-07T00:51:23.746Z,95428.59
2022-11-07T00:53:50.713Z,95434.66
2022-11-07T00:56:23.868Z,95437.97
2022-11-07T00:59:00.022Z,95444.03
2022-11-07T01:01:29.097Z,95451.38
2022-11-07T01:03:56.918Z,95443.53
2022-11-07T01:06:23.863Z,95450.84
2022-11-07T01:08:50.626Z,95450.06
2022-11-07T01:11:17.311Z,95441.94
2022-11-07T01:13:43.788Z,95434.91
2022-11-07T01:16:11.087Z,95440.63
2022-11-07T01:18:37.730Z,95436.66
2022-11-07T01:21:06.631Z,95443.16
2022-11-07T01:23:34.261Z,95449.06
2022-11-07T01:26:08.743Z,95445.56
2022-11-07T01:28:36.106Z,95444.16
2022-11-07T01:31:08.238Z,95444.63
2022-11-07T01:33:35.769Z,95448.34
2022-11-07T01:36:06.250Z,95448.22
2022-11-07T01:38:33.105Z,95448.53
2022-11-07T01:40:59.580Z,95447.31
2022-11-07T01:43:41.476Z,95453.41
2022-11-07T01:46:08.156Z,95450.25
2022-11-07T01:48:34.797Z,95449.00
2022-11-07T01:51:01.843Z,95452.97
2022-11-07T01:53:28.600Z,95450.94
2022-11-07T01:55:55.188Z,95450.78
2022-11-07T01:58:21.885Z,95459.91
2022-11-07T02:00:48.353Z,95460.09
2022-11-07T02:03:18.585Z,95465.69
2022-11-07T02:05:59.999Z,95461.56
2022-11-07T02:08:28.016Z,95469.06
2022-11-07T02:10:55.130Z,95464.44
2022-11-07T02:13:26.959Z,95472.56
2022-11-07T02:15:56.664Z,95464.13
2022-11-07T02:18:23.892Z,95471.16
2022-11-07T02:20:52.226Z,95471.47
2022-11-07T02:23:26.812Z,95469.22
2022-11-07T02:25:54.208Z,95468.13
2022-11-07T02:28:23.857Z,95458.38
2022-11-07T02:30:50.424Z,95472.09
2022-11-07T02:33:21.878Z,95477.22
2022-11-07T02:35:51.005Z,95472.28
2022-11-07T02:38:22.441Z,95475.50
2022-11-07T02:40:56.886Z,95469.75
2022-11-07T02:43:26.969Z,95468.31
2022-11-07T02:45:54.443Z,95469.28
2022-11-07T02:48:21.132Z,95464.31
2022-11-07T02:50:47.691Z,95466.41
2022-11-07T02:53:14.527Z,95470.72
2022-11-07T02:55:41.159Z,95470.09
2022-11-07T02:58:07.768Z,95466.75
2022-11-07T03:00:34.444Z,95472.97
2022-11-07T03:03:00.971Z,95479.69
2022-11-07T03:05:27.866Z,95479.69
2022-11-07T03:07:54.405Z,95481.28
2022-11-07T03:10:21.051Z,95480.97
2022-11-07T03:12:47.914Z,95477.94
2022-11-07T03:15:15.091Z,95475.53
2022-11-07T03:17:42.251Z,95483.69
2022-11-07T03:20:10.144Z,95480.97
2022-11-07T03:22:36.958Z,95484.00
2022-11-07T03:25:04.153Z,95481.63
2022-11-07T03:27:30.658Z,95486.88
2022-11-07T03:29:57.190Z,95480.50
2022-11-07T03:32:24.361Z,95471.38
2022-11-07T03:34:50.821Z,95473.75
2022-11-07T03:37:17.318Z,95464.16
2022-11-07T03:39:43.769Z,95474.03
2022-11-07T03:42:10.223Z,95478.47
2022-11-07T03:44:36.913Z,95489.16
2022-11-07T03:47:03.389Z,95499.84
2022-11-07T03:49:29.926Z,95496.66
2022-11-07T03:51:56.460Z,95501.25
2022-11-07T03:54:22.909Z,95500.47
2022-11-07T03:56:49.710Z,95509.09
2022-11-07T03:59:16.165Z,95504.78
2022-11-07T04:01:42.738Z,95508.28
2022-11-07T04:04:09.368Z,95518.34
2022-11-07T04:06:38.956Z,95517.84
2022-11-07T04:09:06.052Z,95521.69
2022-11-07T04:11:32.492Z,95519.59
2022-11-07T04:13:58.955Z,95520.22
2022-11-07T04:16:25.534Z,95519.22
2022-11-07T04:18:52.238Z,95519.38
2022-11-07T04:21:18.723Z,95526.53
2022-11-07T04:23:45.417Z,95523.63
2022-11-07T04:26:11.860Z,95526.97
2022-11-07T04:28:38.994Z,95525.69
2022-11-07T04:31:05.745Z,95522.00
2022-11-07T04:33:32.223Z,95521.19
2022-11-07T04:35:58.729Z,95523.09
2022-11-07T04:38:25.292Z,95518.28
2022-11-07T04:40:58.455Z,95532.50
2022-11-07T04:43:26.644Z,95526.56
2022-11-07T04:45:53.192Z,95529.09
2022-11-07T04:48:19.889Z,95528.09
2022-11-07T04:50:47.085Z,95534.44
2022-11-07T04:53:18.033Z,95541.59
2022-11-07T04:55:44.870Z,95538.19
2022-11-07T04:58:11.524Z,95541.81
2022-11-07T05:00:38.073Z,95541.16
2022-11-07T05:03:04.634Z,95532.63
2022-11-07T05:05:31.491Z,95534.66
2022-11-07T05:07:58.022Z,95532.88
2022-11-07T05:10:27.556Z,95531.69
2022-11-07T05:12:55.006Z,95531.78
2022-11-07T05:15:21.776Z,95548.16
2022-11-07T05:17:49.097Z,95541.25
2022-11-07T05:20:37.444Z,95534.34
2022-11-07T05:23:04.986Z,95549.78
2022-11-07T05:25:31.436Z,95542.59
2022-11-07T05:27:58.014Z,95545.06
2022-11-07T05:30:24.510Z,95556.50
2022-11-07T05:32:50.992Z,95562.22
2022-11-07T05:35:17.430Z,95554.22
2022-11-07T05:37:43.884Z,95561.06
2022-11-07T05:40:11.302Z,95560.84
2022-11-07T05:42:37.782Z,95556.03
2022-11-07T05:45:04.774Z,95563.66
2022-11-07T05:47:31.210Z,95563.94
2022-11-07T05:49:57.653Z,95562.34
2022-11-07T05:52:24.190Z,95564.25
2022-11-07T05:54:50.743Z,95566.47
2022-11-07T05:57:17.168Z,95574.28
2022-11-07T05:59:43.716Z,95570.44
2022-11-07T06:02:10.252Z,95566.94
2022-11-07T06:04:37.076Z,95567.75
2022-11-07T06:07:03.752Z,95568.88
2022-11-07T06:09:30.180Z,95577.28
2022-11-07T06:11:56.855Z,95578.38
2022-11-07T06:14:23.686Z,95584.91
2022-11-07T06:16:50.129Z,95587.09
2022-11-07T06:19:16.833Z,95585.50
2022-11-07T06:21:43.305Z,95581.50
2022-11-07T06:24:15.142Z,95588.81
2022-11-07T06:26:42.143Z,95595.31
2022-11-07T06:29:08.639Z,95595.63
2022-11-07T06:31:35.158Z,95595.13
2022-11-07T06:34:01.768Z,95591.91
2022-11-07T06:36:28.541Z,95594.91
2022-11-07T06:38:55.312Z,95604.13
2022-11-07T06:41:21.740Z,95606.34
2022-11-07T06:43:51.001Z,95610.13
2022-11-07T06:46:18.237Z,95610.13
2022-11-07T06:48:45.105Z,95610.13
2022-11-07T06:51:12.232Z,95616.06
2022-11-07T06:53:39.293Z,95616.34
2022-11-07T06:56:07.813Z,95614.97
2022-11-07T06:58:34.821Z,95616.53
2022-11-07T07:01:03.187Z,95608.13
2022-11-07T07:03:30.213Z,95617.56
2022-11-07T07:06:04.881Z,95617.75
2022-11-07T07:08:32.029Z,95620.69
2022-11-07T07:11:03.546Z,95629.00
2022-11-07T07:13:30.422Z,95624.28
2022-11-07T07:15:57.985Z,95630.41
2022-11-07T07:18:25.798Z,95625.19
2022-11-07T07:20:52.981Z,95631.03
2022-11-07T07:23:20.711Z,95640.66
2022-11-07T07:25:48.103Z,95637.84
2022-11-07T07:28:14.637Z,95633.63
2022-11-07T07:30:41.176Z,95632.44
2022-11-07T07:33:07.743Z,95632.00
2022-11-07T07:35:34.257Z,95639.72
2022-11-07T07:38:00.709Z,95639.63
2022-11-07T07:40:27.277Z,95642.22
2022-11-07T07:42:53.838Z,95631.59
2022-11-07T07:45:20.286Z,95632.56
2022-11-07T07:47:46.791Z,95645.22
2022-11-07T07:50:13.927Z,95638.91
2022-11-07T07:52:40.615Z,95636.91
2022-11-07T07:55:07.915Z,95641.41
2022-11-07T07:57:44.425Z,95639.38
2022-11-07T08:00:11.909Z,95633.03
2022-11-07T08:02:39.094Z,95636.13
2022-11-07T08:05:06.237Z,95632.69
2022-11-07T08:07:32.702Z,95633.56
2022-11-07T08:10:02.066Z,95636.81
2022-11-07T08:12:32.146Z,95633.06
2022-11-07T08:14:58.594Z,95635.81
2022-11-07T08:17:25.158Z,95632.03
2022-11-07T08:19:51.729Z,95639.13
2022-11-07T08:22:18.219Z,95632.63
2022-11-07T08:24:44.709Z,95629.19
2022-11-07T08:27:11.224Z,95631.59
2022-11-07T08:29:37.661Z,95635.16
2022-11-07T08:32:04.418Z,95637.91
2022-11-07T08:34:30.957Z,95635.22
2022-11-07T08:36:57.502Z,95635.28
2022-11-07T08:39:23.958Z,95632.59
2022-11-07T08:41:50.596Z,95627.16
2022-11-07T08:44:17.046Z,95628.31
2022-11-07T08:46:43.521Z,95626.41
2022-11-07T08:49:10.028Z,95634.25
2022-11-07T08:51:36.516Z,95635.91
2022-11-07T08:54:03.276Z,95633.63
2022-11-07T08:56:29.788Z,95639.88
2022-11-07T08:58:56.242Z,95630.91
2022-11-07T09:01:22.855Z,95641.34
2022-11-07T09:03:56.445Z,95641.00
2022-11-07T09:06:24.599Z,95633.16
2022-11-07T09:08:51.429Z,95635.88
2022-11-07T09:11:17.896Z,95638.59
2022-11-07T09:13:44.982Z,95639.34
2022-11-07T09:16:11.546Z,95641.31
2022-11-07T09:18:38.292Z,95643.22
2022-11-07T09:21:04.921Z,95638.88
2022-11-07T09:23:31.412Z,95646.66
2022-11-07T09:26:00.903Z,95651.63
2022-11-07T09:28:28.342Z,95652.06
2022-11-07T09:30:55.908Z,95655.09
2022-11-07T09:33:23.397Z,95657.44
2022-11-07T09:35:50.436Z,95651.97
2022-11-07T09:38:17.571Z,95654.63
2022-11-07T09:41:00.104Z,95665.16
2022-11-07T09:43:57.540Z,95658.06
2022-11-07T09:46:39.237Z,95663.81
2022-11-07T09:49:19.782Z,95658.78
2022-11-07T09:52:05.985Z,95654.06
2022-11-07T09:54:37.208Z,95642.63
2022-11-07T09:57:04.132Z,95650.28
2022-11-07T09:59:41.867Z,95652.03
2022-11-07T10:02:20.536Z,95646.34
2022-11-07T10:04:54.106Z,95654.00
2022-11-07T10:07:34.224Z,95642.09
2022-11-07T10:10:21.914Z,95648.16
2022-11-07T10:13:00.333Z,95639.75
2022-11-07T10:16:06.912Z,95638.88
2022-11-07T10:18:40.113Z,95634.81
2022-11-07T10:21:37.019Z,95635.84
2022-11-07T10:24:22.449Z,95640.31
2022-11-07T10:26:49.073Z,95646.81
2022-11-07T10:29:18.454Z,95644.31
2022-11-07T10:31:53.273Z,95646.03
2022-11-07T10:34:40.360Z,95634.91
2022-11-07T10:37:09.017Z,95632.75
2022-11-07T10:39:35.641Z,95636.41
2022-11-07T10:42:20.985Z,95625.59
2022-11-07T10:44:48.458Z,95624.28
2022-11-07T10:47:25.802Z,95631.44
2022-11-07T10:50:00.206Z,95631.69
2022-11-07T10:52:27.922Z,95631.09
2022-11-07T10:55:17.190Z,95635.91
2022-11-07T10:57:46.293Z,95636.16
2022-11-07T11:00:24.728Z,95622.56
2022-11-07T11:02:52.539Z,95621.09
2022-11-07T11:05:39.306Z,95622.44
2022-11-07T11:08:21.309Z,95626.09
2022-11-07T11:10:48.717Z,95631.81
2022-11-07T11:13:30.560Z,95622.44
2022-11-07T11:16:05.229Z,95630.41
2022-11-07T11:18:32.944Z,95623.91
2022-11-07T11:21:01.300Z,95625.16
2022-11-07T11:23:30.813Z,95614.78
2022-11-07T11:26:08.477Z,95621.16
2022-11-07T11:28:42.526Z,95610.31
2022-11-07T11:31:19.987Z,95613.63
2022-11-07T11:34:25.695Z,95618.06
2022-11-07T11:37:01.830Z,95620.09
2022-11-07T11:39:37.705Z,95607.31
2022-11-07T11:42:04.343Z,95622.34
2022-11-07T11:44:42.146Z,95609.81
2022-11-07T11:47:34.770Z,95600.00
2022-11-07T11:50:13.524Z,95593.41
2022-11-07T11:52:40.162Z,95593.41
2022-11-07T11:55:14.249Z,95591.44
2022-11-07T11:58:05.043Z,95584.47
2022-11-07T12:00:39.184Z,95579.72
2022-11-07T12:03:42.885Z,95583.22
2022-11-07T12:06:14.775Z,95586.31
2022-11-07T12:09:06.221Z,95573.75
2022-11-07T12:11:41.255Z,95581.53
2022-11-07T12:14:30.575Z,95583.13
2022-11-07T12:17:21.310Z,95583.50
2022-11-07T12:20:11.292Z,95588.97
2022-11-07T12:22:55.773Z,95587.34
2022-11-07T12:25:44.110Z,95575.16
2022-11-07T12:28:29.490Z,95579.06
2022-11-07T12:31:05.152Z,95571.97
2022-11-07T12:33:47.676Z,95561.38
2022-11-07T12:37:07.267Z,95561.72
2022-11-07T12:40:02.943Z,95557.84
2022-11-07T12:43:00.726Z,95557.16
2022-11-07T12:45:52.446Z,95551.34
2022-11-07T12:48:42.953Z,95556.13
2022-11-07T12:51:29.094Z,95553.81
2022-11-07T12:54:16.499Z,95544.81
2022-11-07T12:56:47.182Z,95554.25
2022-11-07T12:59:26.312Z,95550.38
2022-11-07T13:02:18.049Z,95549.13
2022-11-07T13:04:55.914Z,95540.22
2022-11-07T13:07:27.791Z,95543.22
2022-11-07T13:10:05.129Z,95538.84
2022-11-07T13:12:40.265Z,95544.44
2022-11-07T13:15:10.641Z,95546.47
2022-11-07T13:17:45.514Z,95546.81
2022-11-07T13:20:20.886Z,95546.81
2022-11-07T13:22:49.663Z,95548.06
2022-11-07T13:25:16.947Z,95546.13
2022-11-07T13:27:46.259Z,95546.59
2022-11-07T13:30:12.648Z,95546.59
2022-11-07T13:32:46.012Z,95555.25
2022-11-07T13:35:25.854Z,95557.53
2022-11-07T13:38:14.403Z,95553.53
2022-11-07T13:40:49.708Z,95553.97
2022-11-07T13:43:29.447Z,95555.50
2022-11-07T13:45:59.914Z,95554.69
2022-11-07T13:48:48.832Z,95553.47
2022-11-07T13:51:17.958Z,95553.00
2022-11-07T13:53:59.029Z,95555.63
2022-11-07T13:56:39.929Z,95556.31
2022-11-07T13:59:20.429Z,95567.59
2022-11-07T14:01:47.094Z,95562.03
2022-11-07T14:04:19.796Z,95561.94
2022-11-07T14:06:47.819Z,95564.19
2022-11-07T14:09:17.930Z,95558.97
2022-11-07T14:11:46.980Z,95563.56
2022-11-07T14:14:14.074Z,95559.13
2022-11-07T14:16:45.184Z,95568.38
2022-11-07T14:19:24.040Z,95576.94
2022-11-07T14:21:50.653Z,95571.81
2022-11-07T14:24:28.874Z,95578.66
2022-11-07T14:27:04.450Z,95573.53
2022-11-07T14:29:31.802Z,95569.53
2022-11-07T14:32:00.654Z,95570.22
2022-11-07T14:34:27.155Z,95569.44
2022-11-07T14:37:01.447Z,95560.69
2022-11-07T14:39:30.573Z,95563.75
2022-11-07T14:41:59.088Z,95561.38
2022-11-07T14:44:53.397Z,95563.88
2022-11-07T14:47:26.808Z,95556.34
2022-11-07T14:49:54.662Z,95564.13
2022-11-07T14:52:21.071Z,95562.75
2022-11-07T14:54:50.674Z,95570.84
2022-11-07T14:57:17.305Z,95560.13
2022-11-07T14:59:44.291Z,95567.78
2022-11-07T15:02:23.580Z,95560.16
2022-11-07T15:04:51.079Z,95567.44
2022-11-07T15:07:29.487Z,95569.09
2022-11-07T15:10:10.804Z,95572.06
2022-11-07T15:12:49.560Z,95564.78
2022-11-07T15:15:20.830Z,95570.47
2022-11-07T15:17:52.380Z,95572.97
2022-11-07T15:20:33.633Z,95562.16
2022-11-07T15:23:02.672Z,95564.63
2022-11-07T15:25:39.300Z,95577.56
2022-11-07T15:28:21.851Z,95574.13
2022-11-07T15:30:49.673Z,95573.09
2022-11-07T15:33:17.429Z,95573.97
2022-11-07T15:35:46.338Z,95570.06
2022-11-07T15:38:22.388Z,95572.06
2022-11-07T15:40:49.585Z,95567.47
2022-11-07T15:43:16.085Z,95567.41
2022-11-07T15:45:42.821Z,95572.13
2022-11-07T15:48:16.303Z,95574.00
2022-11-07T15:50:44.719Z,95571.19
2022-11-07T15:53:20.159Z,95575.16
2022-11-07T15:55:47.782Z,95578.06
2022-11-07T15:58:15.229Z,95575.72
2022-11-07T16:00:42.126Z,95579.94
2022-11-07T16:03:16.705Z,95578.72
2022-11-07T16:05:45.963Z,95592.72
2022-11-07T16:08:18.745Z,95591.94
2022-11-07T16:10:48.510Z,95588.44
2022-11-07T16:13:15.095Z,95590.34
2022-11-07T16:15:47.239Z,95587.66
2022-11-07T16:18:19.781Z,95592.31
2022-11-07T16:20:48.107Z,95586.59
2022-11-07T16:23:15.260Z,95587.38
2022-11-07T16:25:44.053Z,95590.13
2022-11-07T16:28:29.030Z,95590.94
2022-11-07T16:30:55.895Z,95585.47
2022-11-07T16:33:23.000Z,95585.19
2022-11-07T16:35:51.694Z,95588.38
2022-11-07T16:38:20.216Z,95592.38
2022-11-07T16:40:47.268Z,95590.13
2022-11-07T16:43:14.382Z,95598.75
2022-11-07T16:45:46.532Z,95600.84
2022-11-07T16:48:24.221Z,95605.16
2022-11-07T16:50:51.858Z,95597.94
2022-11-07T16:53:19.699Z,95595.38
2022-11-07T16:55:53.346Z,95599.03
2022-11-07T16:58:33.423Z,95596.50
2022-11-07T17:01:05.417Z,95600.16
2022-11-07T17:03:32.561Z,95603.81
2022-11-07T17:06:01.555Z,95599.28
2022-11-07T17:08:39.464Z,95603.44
2022-11-07T17:11:06.061Z,95597.78
2022-11-07T17:13:32.820Z,95599.88
2022-11-07T17:15:59.592Z,95592.66
2022-11-07T17:18:26.996Z,95596.03
2022-11-07T17:20:54.185Z,95595.38
2022-11-07T17:23:28.492Z,95609.09
2022-11-07T17:25:57.905Z,95608.09
2022-11-07T17:28:24.466Z,95607.16
2022-11-07T17:30:51.033Z,95610.47
2022-11-07T17:33:17.545Z,95607.56
2022-11-07T17:35:44.073Z,95601.19
2022-11-07T17:38:16.402Z,95604.53
2022-11-07T17:40:43.487Z,95599.41
2022-11-07T17:43:10.058Z,95600.03
2022-11-07T17:45:37.151Z,95603.84
2022-11-07T17:48:04.438Z,95594.13
2022-11-07T17:50:30.879Z,95599.03
2022-11-07T17:52:57.649Z,95594.41
2022-11-07T17:55:24.088Z,95600.16
2022-11-07T17:57:50.657Z,95599.66
2022-11-07T18:00:19.036Z,95600.78
2022-11-07T18:02:46.167Z,95608.41
2022-11-07T18:05:14.852Z,95608.72
2022-11-07T18:07:41.386Z,95608.25
2022-11-07T18:10:08.472Z,95607.75
2022-11-07T18:12:34.959Z,95611.88
2022-11-07T18:15:01.546Z,95605.97
2022-11-07T18:17:28.026Z,95600.38
2022-11-07T18:19:54.509Z,95590.13
2022-11-07T18:22:21.092Z,95592.69
2022-11-07T18:24:47.675Z,95591.38
2022-11-07T18:27:14.258Z,95595.00
2022-11-07T18:29:40.724Z,95597.56
2022-11-07T18:32:07.311Z,95597.34
2022-11-07T18:34:33.874Z,95591.75
2022-11-07T18:37:00.603Z,95586.94
2022-11-07T18:39:27.675Z,95580.56
2022-11-07T18:41:54.206Z,95583.88
2022-11-07T18:44:20.938Z,95589.91
2022-11-07T18:46:47.609Z,95587.81
2022-11-07T18:49:15.310Z,95583.78
2022-11-07T18:51:41.949Z,95585.84
2022-11-07T18:54:10.647Z,95595.06
2022-11-07T18:56:37.189Z,95586.75
2022-11-07T18:59:03.661Z,95573.03
2022-11-07T19:01:31.510Z,95580.16
2022-11-07T19:04:00.570Z,95579.97
2022-11-07T19:06:29.395Z,95575.97
2022-11-07T19:08:55.921Z,95582.28
2022-11-07T19:11:27.612Z,95589.94
2022-11-07T19:13:55.299Z,95587.00
2022-11-07T19:16:22.274Z,95589.03
2022-11-07T19:18:50.003Z,95585.31
2022-11-07T19:21:21.301Z,95590.53
2022-11-07T19:23:48.840Z,95583.31
2022-11-07T19:26:16.855Z,95592.06
2022-11-07T19:28:43.306Z,95590.25
2022-11-07T19:31:11.317Z,95588.50
2022-11-07T19:33:37.785Z,95590.97
2022-11-07T19:36:07.864Z,95590.00
2022-11-07T19:38:34.690Z,95587.06
2022-11-07T19:41:05.658Z,95592.31
2022-11-07T19:43:32.735Z,95595.63
2022-11-07T19:45:59.317Z,95593.81
2022-11-07T19:48:26.041Z,95600.66
2022-11-07T19:50:52.575Z,95602.03
2022-11-07T19:53:19.267Z,95599.13
2022-11-07T19:55:45.983Z,95591.63
2022-11-07T19:58:12.573Z,95588.72
2022-11-07T20:00:39.104Z,95589.31
2022-11-07T20:03:05.646Z,95599.94
2022-11-07T20:05:32.284Z,95605.94
2022-11-07T20:08:03.729Z,95602.72
2022-11-07T20:10:32.029Z,95601.75
2022-11-07T20:12:58.641Z,95598.03
2022-11-07T20:15:25.088Z,95606.44
2022-11-07T20:17:51.534Z,95599.72
2022-11-07T20:20:18.065Z,95599.22
2022-11-07T20:22:46.680Z,95607.34
2022-11-07T20:25:14.245Z,95606.84
2022-11-07T20:27:40.830Z,95615.25
2022-11-07T20:30:08.184Z,95612.56
2022-11-07T20:32:34.675Z,95610.63
2022-11-07T20:35:01.146Z,95617.16
2022-11-07T20:37:27.774Z,95616.63
2022-11-07T20:39:54.248Z,95625.88
2022-11-07T20:42:20.719Z,95616.16
2022-11-07T20:44:49.395Z,95611.81
2022-11-07T20:47:15.897Z,95617.53
2022-11-07T20:49:42.581Z,95622.16
2022-11-07T20:52:09.213Z,95618.94
2022-11-07T20:54:36.842Z,95616.53
2022-11-07T20:57:04.564Z,95621.13
2022-11-07T20:59:31.624Z,95623.63
2022-11-07T21:02:03.186Z,95617.72
2022-11-07T21:04:36.279Z,95613.69
2022-11-07T21:07:10.921Z,95615.13
2022-11-07T21:09:37.547Z,95609.19
2022-11-07T21:12:04.085Z,95607.91
2022-11-07T21:14:30.595Z,95604.66
2022-11-07T21:16:57.075Z,95610.66
2022-11-07T21:19:23.544Z,95602.34
2022-11-07T21:21:50.162Z,95608.88
2022-11-07T21:24:16.768Z,95606.47
2022-11-07T21:26:43.285Z,95608.66
2022-11-07T21:29:09.766Z,95604.66
2022-11-07T21:31:38.741Z,95612.22
2022-11-07T21:34:06.929Z,95603.63
2022-11-07T21:36:33.551Z,95607.72
2022-11-07T21:39:00.901Z,95607.22
2022-11-07T21:41:28.981Z,95612.13
2022-11-07T21:43:56.743Z,95601.09
2022-11-07T21:46:26.402Z,95600.56
2022-11-07T21:48:53.539Z,95599.28
2022-11-07T21:51:23.049Z,95601.44
2022-11-07T21:53:50.015Z,95606.06
2022-11-07T21:56:25.132Z,95600.44
2022-11-07T21:58:58.437Z,95597.53
2022-11-07T22:01:25.670Z,95601.34
2022-11-07T22:04:06.128Z,95604.31
2022-11-07T22:06:35.868Z,95601.41
2022-11-07T22:09:02.746Z,95602.38
2022-11-07T22:11:29.314Z,95607.19
2022-11-07T22:13:55.858Z,95609.38
2022-11-07T22:16:23.074Z,95615.88
2022-11-07T22:18:49.913Z,95614.81
2022-11-07T22:21:19.881Z,95615.41
2022-11-07T22:23:47.424Z,95611.91
2022-11-07T22:26:18.342Z,95614.38
2022-11-07T22:28:46.224Z,95605.78
2022-11-07T22:31:14.218Z,95609.41
2022-11-07T22:33:41.017Z,95612.34
2022-11-07T22:36:09.948Z,95601.03
2022-11-07T22:38:37.434Z,95600.53
2022-11-07T22:41:16.759Z,95596.78
2022-11-07T22:43:43.813Z,95604.88
2022-11-07T22:46:15.733Z,95599.28
2022-11-07T22:48:43.195Z,95602.28
2022-11-07T22:51:21.699Z,95604.47
2022-11-07T22:53:54.621Z,95604.75
2022-11-07T22:56:21.073Z,95598.81
2022-11-07T22:58:47.826Z,95594.81
2022-11-07T23:01:20.157Z,95591.59
2022-11-07T23:03:47.722Z,95597.56
2022-11-07T23:06:15.436Z,95589.47
2022-11-07T23:08:42.429Z,95595.97
2022-11-07T23:11:47.642Z,95584.16
2022-11-07T23:14:17.347Z,95587.13
2022-11-07T23:16:46.687Z,95586.34
2022-11-07T23:19:15.210Z,95581.22
2022-11-07T23:21:42.208Z,95585.00
2022-11-07T23:24:09.317Z,95585.31
2022-11-07T23:26:36.312Z,95579.41
2022-11-07T23:29:14.197Z,95587.00
2022-11-07T23:31:41.939Z,95584.88
2022-11-07T23:34:08.685Z,95581.38
2022-11-07T23:36:35.462Z,95576.28
2022-11-07T23:39:06.275Z,95580.34
2022-11-07T23:41:33.094Z,95581.41
2022-11-07T23:43:59.702Z,95571.19
2022-11-07T23:46:26.231Z,95569.31
2022-11-07T23:48:52.885Z,95560.69
2022-11-07T23:51:19.515Z,95562.59
2022-11-07T23:53:45.946Z,95560.69
2022-11-07T23:56:12.509Z,95563.09
2022-11-07T23:58:39.077Z,95565.00
